createdAt,value
2023-02-19T00:00:01.105Z,29.73
2023-02-19T00:01:01.109Z,28.78
2023-02-19T00:02:01.134Z,28.02
2023-02-19T04:42:07.812Z,28.25
2023-02-19T04:43:07.853Z,30.13
2023-02-19T04:44:07.873Z,30.04
2023-02-19T04:45:07.907Z,26.75
2023-02-19T04:46:07.956Z,30.02
2023-02-19T04:47:07.967Z,28.06
2023-02-19T04:48:08.005Z,25.83
2023-02-19T04:49:08.038Z,27.28
2023-02-19T04:50:08.065Z,26.76
2023-02-19T09:46:17.852Z,27.76
2023-02-19T09:47:17.881Z,25.94
2023-02-19T09:48:17.927Z,27.25
2023-02-19T09:49:17.966Z,25.00
2023-02-19T09:50:18.013Z,27.60
2023-02-19T09:51:18.075Z,28.73
2023-02-19T09:52:18.122Z,26.22
2023-02-19T09:53:18.160Z,27.21
2023-02-19T09:54:18.199Z,26.39
2023-02-19T09:55:18.246Z,28.61
2023-02-19T09:56:18.282Z,28.68
2023-02-19T09:57:18.310Z,26.58
2023-02-19T09:58:18.353Z,26.71
2023-02-19T09:59:18.401Z,28.16
2023-02-19T10:00:18.434Z,25.00
2023-02-19T10:01:18.513Z,25.00
2023-02-19T10:02:18.504Z,27.41
2023-02-19T10:03:18.535Z,26.26
2023-02-19T10:04:18.564Z,27.30
2023-02-19T10:05:18.635Z,27.67
2023-02-19T10:06:18.709Z,27.84
2023-02-19T10:07:18.677Z,26.56
2023-02-19T10:08:18.745Z,27.55
2023-02-19T10:09:18.745Z,28.36
2023-02-19T10:10:18.796Z,28.28
2023-02-19T10:11:18.823Z,26.16
2023-02-19T10:12:18.842Z,28.89
2023-02-19T10:13:18.889Z,28.01
2023-02-19T10:14:18.920Z,27.61
2023-02-19T10:15:18.969Z,29.15
2023-02-19T10:16:18.995Z,27.16
2023-02-19T10:17:19.033Z,28.55
2023-02-19T10:18:19.070Z,28.09
2023-02-19T10:19:19.113Z,26.86
2023-02-19T10:20:19.184Z,26.33
2023-02-19T10:21:19.169Z,26.87
2023-02-19T10:22:19.198Z,25.29
2023-02-19T10:23:19.238Z,26.74
2023-02-19T10:24:19.355Z,27.17
2023-02-19T10:25:19.321Z,26.44
2023-02-19T10:26:19.343Z,25.51
2023-02-19T10:27:19.382Z,26.50
2023-02-19T10:28:19.417Z,26.26
2023-02-19T10:29:19.447Z,27.08
2023-02-19T10:30:20.088Z,27.97
2023-02-19T10:31:20.792Z,27.82
2023-02-19T10:32:19.646Z,27.44
2023-02-19T10:33:19.590Z,27.69
2023-02-19T10:34:19.633Z,27.08
2023-02-19T10:35:19.667Z,27.10
2023-02-19T10:36:19.701Z,25.63
2023-02-19T10:37:19.862Z,27.01
2023-02-19T10:38:19.769Z,28.44
2023-02-19T10:39:19.806Z,28.71
2023-02-19T10:40:19.824Z,28.32
2023-02-19T10:41:19.854Z,29.16
2023-02-19T10:42:19.886Z,27.63
2023-02-19T10:43:19.927Z,29.09
2023-02-19T10:44:19.969Z,26.90
2023-02-19T10:45:20.013Z,27.33
2023-02-19T10:46:20.073Z,26.51
2023-02-19T10:47:20.073Z,28.41
2023-02-19T10:48:20.119Z,27.48
2023-02-19T10:49:20.152Z,27.79
2023-02-19T10:50:20.194Z,28.05
2023-02-19T10:51:20.224Z,28.38
2023-02-19T10:52:20.290Z,28.48
2023-02-19T10:53:20.316Z,26.34
2023-02-19T10:54:20.378Z,25.83
2023-02-19T10:55:20.396Z,27.28
2023-02-19T10:56:20.429Z,27.14
2023-02-19T10:57:20.468Z,27.63
2023-02-19T10:58:20.519Z,27.25
2023-02-19T10:59:20.581Z,28.81
2023-02-19T11:00:20.616Z,27.32
2023-02-19T11:01:20.753Z,27.44
2023-02-19T11:02:20.694Z,27.55
2023-02-19T11:03:20.732Z,30.29
2023-02-19T11:04:20.818Z,28.14
2023-02-19T11:05:20.821Z,29.05
2023-02-19T11:06:20.867Z,29.38
2023-02-19T11:07:20.907Z,28.77
2023-02-19T11:08:20.958Z,28.98
2023-02-19T11:09:21.017Z,29.51
2023-02-19T11:10:21.073Z,29.80
2023-02-19T11:11:21.105Z,29.06
2023-02-19T11:12:21.137Z,28.45
2023-02-19T11:13:21.184Z,29.06
2023-02-19T11:14:21.222Z,30.14
2023-02-19T11:15:21.266Z,29.52
2023-02-19T11:16:21.335Z,29.82
2023-02-19T11:17:21.354Z,29.13
2023-02-19T11:18:21.399Z,28.67
2023-02-19T11:19:21.438Z,29.58
2023-02-19T11:20:21.500Z,29.30
2023-02-19T11:21:21.544Z,28.89
2023-02-19T11:22:21.608Z,27.99
2023-02-19T11:23:21.654Z,29.04
2023-02-19T11:24:21.705Z,28.70
2023-02-19T11:25:21.772Z,29.47
2023-02-19T11:26:21.803Z,31.02
2023-02-19T11:27:21.876Z,31.22
2023-02-19T11:28:21.990Z,31.15
2023-02-19T11:29:21.968Z,31.86
2023-02-19T11:30:22.137Z,29.77
2023-02-19T11:31:22.244Z,31.53
2023-02-19T11:32:22.311Z,30.01
2023-02-19T11:33:22.252Z,32.63
2023-02-19T11:34:22.274Z,32.61
2023-02-19T11:35:22.327Z,32.99
2023-02-19T11:36:23.107Z,36.29
2023-02-19T11:37:22.459Z,34.31
2023-02-19T11:38:22.497Z,36.56
2023-02-19T11:39:22.568Z,36.01
2023-02-19T11:40:22.619Z,37.21
2023-02-19T11:41:22.675Z,36.66
2023-02-19T11:42:22.804Z,37.93
2023-02-19T11:43:22.830Z,35.07
2023-02-19T11:44:22.883Z,36.84
2023-02-19T11:45:22.966Z,34.80
2023-02-19T11:46:23.046Z,38.02
2023-02-19T11:47:23.099Z,38.17
2023-02-19T11:48:24.074Z,36.68
2023-02-19T11:49:23.207Z,40.21
2023-02-19T11:50:23.287Z,37.30
2023-02-19T11:51:23.352Z,36.55
2023-02-19T11:52:23.428Z,36.48
2023-02-19T11:53:23.491Z,37.31
2023-02-19T11:54:23.554Z,38.35
2023-02-19T11:55:23.616Z,37.62
2023-02-19T11:56:23.694Z,37.08
2023-02-19T11:57:23.753Z,35.94
2023-02-19T11:58:23.804Z,36.55
2023-02-19T11:59:23.855Z,37.20
2023-02-19T12:00:23.990Z,35.65
2023-02-19T12:01:23.949Z,36.86
2023-02-19T12:02:24.149Z,35.76
2023-02-19T12:03:24.087Z,36.46
2023-02-19T12:04:24.139Z,35.92
2023-02-19T12:05:24.215Z,36.09
2023-02-19T12:06:24.224Z,35.00
2023-02-19T12:07:24.290Z,31.63
2023-02-19T12:08:24.330Z,34.28
2023-02-19T12:09:24.404Z,35.08
2023-02-19T12:10:24.430Z,34.13
2023-02-19T12:11:24.465Z,35.34
2023-02-19T12:12:24.545Z,38.91
2023-02-19T12:13:24.598Z,33.40
2023-02-19T12:14:24.808Z,35.65
2023-02-19T12:15:24.726Z,33.25
2023-02-19T12:16:24.805Z,33.07
2023-02-19T12:17:24.825Z,34.20
2023-02-19T12:18:24.874Z,33.55
2023-02-19T12:19:24.927Z,32.96
2023-02-19T12:20:25.015Z,34.25
2023-02-19T12:21:25.043Z,34.59
2023-02-19T12:22:25.088Z,31.65
2023-02-19T12:23:26.074Z,32.53
2023-02-19T12:24:25.233Z,33.12
2023-02-19T12:25:25.268Z,34.47
2023-02-19T12:26:25.302Z,36.63
2023-02-19T12:27:25.352Z,34.93
2023-02-19T12:28:25.424Z,31.09
2023-02-19T12:29:25.410Z,32.98
2023-02-19T12:30:25.472Z,32.71
2023-02-19T12:31:25.576Z,34.42
2023-02-19T12:32:25.518Z,31.61
2023-02-19T12:33:25.528Z,31.59
2023-02-19T12:34:25.565Z,28.01
2023-02-19T12:35:25.563Z,28.63
2023-02-19T12:36:25.591Z,26.37
2023-02-19T12:37:25.607Z,27.36
2023-02-19T12:38:25.613Z,29.08
2023-02-19T12:39:26.502Z,31.53
2023-02-19T12:40:25.628Z,36.02
2023-02-19T12:41:25.638Z,31.19
2023-02-19T12:42:25.641Z,35.26
2023-02-19T16:12:28.161Z,65.44
2023-02-19T16:14:28.163Z,67.10
2023-02-19T16:24:28.174Z,69.02
2023-02-19T16:54:27.815Z,74.08
2023-02-19T17:03:27.796Z,73.35
2023-02-19T17:04:27.797Z,73.94
2023-02-19T17:05:27.830Z,73.30
2023-02-19T17:06:27.810Z,74.86
2023-02-19T17:07:27.817Z,74.48
2023-02-19T17:08:27.824Z,74.28
2023-02-19T17:09:27.830Z,74.77
2023-02-19T17:10:27.848Z,74.21
2023-02-19T17:11:27.849Z,73.74
2023-02-19T17:12:27.890Z,73.86
2023-02-19T17:13:27.875Z,74.06
2023-02-19T17:14:27.884Z,73.62
2023-02-19T17:15:27.904Z,73.44
2023-02-19T17:16:27.992Z,73.70
2023-02-19T17:17:27.899Z,74.46
2023-02-19T17:18:27.938Z,71.19
2023-02-19T17:19:27.922Z,71.06
2023-02-19T17:20:27.936Z,72.39
2023-02-19T17:21:27.967Z,72.23
2023-02-19T17:22:27.947Z,70.29
2023-02-19T17:23:27.966Z,71.11
2023-02-19T17:24:27.965Z,72.26
2023-02-19T17:25:28.197Z,73.38
2023-02-19T17:26:28.020Z,71.56
2023-02-19T17:27:28.014Z,71.00
2023-02-19T17:28:28.038Z,70.71
2023-02-19T17:29:28.055Z,70.20
2023-02-19T17:30:28.144Z,70.48
2023-02-19T17:31:28.201Z,73.01
2023-02-19T17:32:28.181Z,71.74
2023-02-19T17:33:28.101Z,70.43
2023-02-19T17:34:28.109Z,71.81
2023-02-19T17:35:28.134Z,71.39
2023-02-19T17:36:28.128Z,70.36
2023-02-19T17:37:28.163Z,73.97
2023-02-19T17:38:28.165Z,72.50
2023-02-19T17:39:28.181Z,72.77
2023-02-19T17:40:33.044Z,72.05
2023-02-19T17:41:29.214Z,72.13
2023-02-19T17:42:28.210Z,72.47
2023-02-19T17:43:28.215Z,72.30
2023-02-19T17:44:29.200Z,74.16
2023-02-19T17:45:28.240Z,72.49
2023-02-19T17:46:28.239Z,72.45
2023-02-19T17:47:28.254Z,73.35
2023-02-19T17:50:28.283Z,72.66
2023-02-19T17:51:28.280Z,72.89
2023-02-19T17:52:28.277Z,73.86
2023-02-19T17:53:28.283Z,73.76
2023-02-19T17:54:28.292Z,73.24
2023-02-19T17:55:28.296Z,71.39
2023-02-19T17:56:28.324Z,73.66
2023-02-19T17:57:28.300Z,72.26
2023-02-19T17:58:28.303Z,70.38
2023-02-19T17:59:28.296Z,72.78
2023-02-19T18:00:28.314Z,74.33
2023-02-19T18:01:28.359Z,76.06
2023-02-19T18:02:28.317Z,74.09
2023-02-19T18:04:28.322Z,72.63
2023-02-19T18:05:28.324Z,73.88
2023-02-19T18:06:28.339Z,75.19
2023-02-19T18:07:28.314Z,76.82
2023-02-19T18:08:28.310Z,75.93
2023-02-19T18:09:28.318Z,76.89
2023-02-19T18:10:28.320Z,77.55
2023-02-19T18:29:28.447Z,76.31
2023-02-19T18:30:28.547Z,77.61
2023-02-19T18:31:28.533Z,75.75
2023-02-19T18:32:28.432Z,78.84
2023-02-19T18:33:28.444Z,79.66
2023-02-19T18:34:28.459Z,77.00
2023-02-19T18:35:28.448Z,78.39
2023-02-19T18:36:28.462Z,80.16
2023-02-19T18:37:28.461Z,77.92
2023-02-19T18:38:28.482Z,80.12
2023-02-19T18:39:28.485Z,78.10
2023-02-19T18:40:28.491Z,79.89
2023-02-19T18:41:28.493Z,79.87
2023-02-19T18:42:28.485Z,80.41
2023-02-19T18:43:28.493Z,78.36
2023-02-19T18:44:28.501Z,78.96
2023-02-19T18:45:28.515Z,79.76
2023-02-19T18:46:28.519Z,80.44
2023-02-19T18:47:28.537Z,76.68
2023-02-19T18:48:28.525Z,78.44
2023-02-19T18:49:28.533Z,79.87
2023-02-19T18:50:28.548Z,78.13
2023-02-19T18:51:28.555Z,79.48
2023-02-19T18:52:28.611Z,77.65
2023-02-19T18:53:30.414Z,80.04
2023-02-19T18:54:28.818Z,81.07
2023-02-19T18:55:29.717Z,80.08
2023-02-19T18:56:28.834Z,78.72
2023-02-19T18:57:28.840Z,80.45
2023-02-19T18:58:28.847Z,81.81
2023-02-19T18:59:28.861Z,79.49
2023-02-19T19:00:28.940Z,79.13
2023-02-19T19:01:28.921Z,80.96
2023-02-19T19:02:36.445Z,80.51
2023-02-19T19:04:28.920Z,80.64
2023-02-19T19:05:28.891Z,80.68
2023-02-19T19:06:28.886Z,80.71
2023-02-19T19:08:30.668Z,81.28
2023-02-19T19:09:28.896Z,81.80
2023-02-19T19:10:28.890Z,82.08
2023-02-19T19:11:28.949Z,78.63
2023-02-19T19:12:28.914Z,79.57
2023-02-19T19:13:28.890Z,80.63
2023-02-19T19:43:28.959Z,78.71
2023-02-19T19:44:28.981Z,79.53
2023-02-19T19:45:29.008Z,79.05
2023-02-19T19:46:28.974Z,77.08
2023-02-19T19:47:28.951Z,78.02
2023-02-19T19:48:28.958Z,78.72
2023-02-19T19:49:28.962Z,78.70
2023-02-19T19:50:28.975Z,77.02
2023-02-19T19:51:28.979Z,80.34
2023-02-19T19:52:28.992Z,79.63
2023-02-19T19:53:29.001Z,79.10
2023-02-19T19:54:29.013Z,80.55
2023-02-19T19:55:29.033Z,77.07
2023-02-19T19:56:29.050Z,80.22
2023-02-19T19:57:29.047Z,80.99
2023-02-19T19:58:29.056Z,76.33
2023-02-19T19:59:29.060Z,78.51
2023-02-19T20:00:29.149Z,78.16
2023-02-19T20:01:29.109Z,78.55
2023-02-19T20:02:29.296Z,79.64
2023-02-19T20:03:29.101Z,77.91
2023-02-19T20:04:29.099Z,78.53
2023-02-19T20:05:29.131Z,78.48
2023-02-19T20:06:29.122Z,79.89
2023-02-19T20:07:29.134Z,80.51
2023-02-19T20:08:29.139Z,78.03
2023-02-19T20:09:29.289Z,79.50
2023-02-19T20:10:29.158Z,78.15
2023-02-19T20:11:29.169Z,80.32
2023-02-19T20:12:29.169Z,79.73
2023-02-19T20:13:29.163Z,79.77
2023-02-19T20:14:29.169Z,78.46
2023-02-19T20:15:29.179Z,77.93
2023-02-19T20:16:29.244Z,79.54
2023-02-19T20:17:29.247Z,78.32
2023-02-19T20:18:29.225Z,79.75
2023-02-19T20:19:29.221Z,77.65
2023-02-19T20:20:29.226Z,80.12
2023-02-19T20:21:29.234Z,79.05
2023-02-19T20:22:29.246Z,79.66
2023-02-19T20:23:29.266Z,77.68
2023-02-19T20:24:29.263Z,79.00
2023-02-19T20:25:29.273Z,78.30
2023-02-19T20:26:29.282Z,78.72
2023-02-19T20:27:29.318Z,78.39
2023-02-19T20:28:29.383Z,79.13
2023-02-19T20:29:29.602Z,77.98
2023-02-19T20:30:29.562Z,78.00
2023-02-19T20:31:29.645Z,80.56
2023-02-19T20:32:29.640Z,78.85
2023-02-19T20:33:29.720Z,79.01
2023-02-19T20:34:29.772Z,78.18
2023-02-19T20:35:29.847Z,78.72
2023-02-19T20:36:29.922Z,79.77
2023-02-19T20:37:30.751Z,79.24
2023-02-19T20:38:30.003Z,79.22
2023-02-19T20:39:30.054Z,78.93
2023-02-19T20:40:30.758Z,78.15
2023-02-19T20:41:30.194Z,79.42
2023-02-19T20:42:30.264Z,78.31
2023-02-19T20:43:30.350Z,79.02
2023-02-19T20:44:30.425Z,78.90
2023-02-19T20:45:30.500Z,80.74
2023-02-19T20:46:30.572Z,79.54
2023-02-19T20:47:30.652Z,78.10
2023-02-19T20:48:30.715Z,78.05
2023-02-19T20:49:30.804Z,77.30
2023-02-19T20:50:30.945Z,77.42
2023-02-19T20:51:30.914Z,77.88
2023-02-19T20:52:30.993Z,79.00
2023-02-19T20:53:31.065Z,78.62
2023-02-19T20:54:31.124Z,77.52
2023-02-19T20:55:31.208Z,79.24
2023-02-19T20:56:31.275Z,77.21
2023-02-19T20:57:31.322Z,76.71
2023-02-19T20:58:31.392Z,78.86
2023-02-19T20:59:31.476Z,75.54
2023-02-19T21:00:31.551Z,78.86
2023-02-19T21:01:31.627Z,76.11
2023-02-19T21:02:31.720Z,76.29
2023-02-19T21:03:31.738Z,77.08
2023-02-19T21:04:31.804Z,77.98
2023-02-19T21:05:31.870Z,78.54
2023-02-19T21:06:31.934Z,76.18
2023-02-19T21:07:31.997Z,76.94
2023-02-19T21:08:32.067Z,78.15
2023-02-19T21:09:32.138Z,76.16
2023-02-19T21:10:32.278Z,78.52
2023-02-19T21:11:32.270Z,77.75
2023-02-19T21:12:32.355Z,76.31
2023-02-19T21:13:32.430Z,75.78
2023-02-19T21:14:32.516Z,76.75
2023-02-19T21:15:32.579Z,78.24
2023-02-19T21:16:32.659Z,78.50
2023-02-19T21:17:32.734Z,77.61
2023-02-19T21:18:32.806Z,76.82
2023-02-19T21:19:32.886Z,77.72
2023-02-19T21:20:32.945Z,76.34
2023-02-19T21:21:33.017Z,75.93
2023-02-19T21:22:33.093Z,76.45
2023-02-19T21:23:33.154Z,75.17
2023-02-19T21:24:33.240Z,74.08
2023-02-19T21:25:33.348Z,75.96
2023-02-19T21:26:33.385Z,75.23
2023-02-19T21:27:33.472Z,73.70
2023-02-19T21:28:33.540Z,74.33
2023-02-19T21:29:33.611Z,76.97
2023-02-19T21:30:33.721Z,76.99
2023-02-19T21:31:33.885Z,75.26
2023-02-19T21:32:33.837Z,74.65
2023-02-19T21:33:33.922Z,73.56
2023-02-19T21:34:34.055Z,75.16
2023-02-19T21:35:34.288Z,74.95
2023-02-19T21:36:34.132Z,75.36
2023-02-19T21:37:34.776Z,74.35
2023-02-19T21:38:35.277Z,72.90
2023-02-19T21:39:34.355Z,75.10
2023-02-19T21:40:34.777Z,74.64
2023-02-19T21:41:34.522Z,75.74
2023-02-19T21:42:34.585Z,75.26
2023-02-19T21:43:34.728Z,75.81
2023-02-19T21:44:34.751Z,73.84
2023-02-19T21:45:34.860Z,75.95
2023-02-19T21:46:34.920Z,75.47
2023-02-19T21:47:34.963Z,73.40
2023-02-19T21:48:35.046Z,74.54
2023-02-19T21:49:35.113Z,73.48
2023-02-19T21:50:35.202Z,75.02
2023-02-19T21:51:35.267Z,74.44
2023-02-19T21:52:35.348Z,75.23
2023-02-19T21:53:35.442Z,74.34
2023-02-19T21:54:35.506Z,73.44
2023-02-19T21:55:35.578Z,75.59
2023-02-19T21:56:36.532Z,73.01
2023-02-19T21:57:35.740Z,75.80
2023-02-19T21:58:35.814Z,73.54
2023-02-19T21:59:35.883Z,74.82
2023-02-19T22:00:35.966Z,76.55
2023-02-19T22:01:36.051Z,73.80
2023-02-19T22:02:36.138Z,73.06
2023-02-19T22:04:36.266Z,75.08
2023-02-19T22:05:36.405Z,73.34
2023-02-19T22:06:36.433Z,73.16
2023-02-19T22:07:36.541Z,73.69
2023-02-19T22:08:36.590Z,75.62
2023-02-19T22:09:36.665Z,75.16
2023-02-19T22:10:36.739Z,73.32
2023-02-19T22:11:36.813Z,74.46
2023-02-19T22:12:36.959Z,73.25
2023-02-19T22:13:36.969Z,73.39
2023-02-19T22:25:37.872Z,73.32
2023-02-19T22:26:37.929Z,74.02
2023-02-19T22:27:38.020Z,73.60
2023-02-19T22:28:38.102Z,73.36
2023-02-19T22:29:38.175Z,72.46
2023-02-19T22:30:38.324Z,73.78
2023-02-19T22:31:38.445Z,72.97
2023-02-19T22:32:38.549Z,69.99
2023-02-19T22:33:38.468Z,70.57
2023-02-19T22:34:38.558Z,71.56
2023-02-19T22:35:38.692Z,71.60
2023-02-19T22:36:38.713Z,71.42
2023-02-19T22:37:39.293Z,72.95
2023-02-19T22:38:38.909Z,71.51
2023-02-19T22:39:38.934Z,70.50
2023-02-19T22:40:39.794Z,70.34
2023-02-19T22:41:39.086Z,72.67
2023-02-19T22:42:39.156Z,74.46
